createdAt,value
2018-09-27T00:00:28.186Z,6.30
2018-09-27T00:01:28.320Z,4.80
2018-09-27T00:02:28.450Z,6.70
2018-09-27T00:03:28.585Z,5.60
2018-09-27T00:04:28.720Z,4.80
2018-09-27T00:05:28.853Z,6.20
2018-09-27T00:06:28.991Z,6.40
2018-09-27T00:07:29.129Z,4.90
2018-09-27T00:08:29.257Z,5.40
2018-09-27T00:09:29.387Z,4.60
2018-09-27T00:12:01.743Z,4.90
2018-09-27T00:13:01.875Z,7.00
2018-09-27T00:14:02.007Z,5.50
2018-09-27T00:15:02.146Z,5.30
2018-09-27T00:16:02.277Z,6.00
2018-09-27T00:17:02.411Z,5.10
2018-09-27T00:18:02.550Z,6.00
2018-09-27T00:19:02.687Z,6.20
2018-09-27T00:20:02.816Z,5.60
2018-09-27T00:21:02.937Z,6.10
2018-09-27T00:22:03.124Z,6.10
2018-09-27T00:23:03.235Z,5.50
2018-09-27T00:24:03.377Z,6.30
2018-09-27T00:25:03.511Z,4.10
2018-09-27T00:26:03.666Z,5.20
2018-09-27T00:27:03.805Z,5.10
2018-09-27T00:28:03.939Z,5.30
2018-09-27T00:29:04.072Z,5.70
2018-09-27T00:30:04.232Z,4.90
2018-09-27T00:31:04.364Z,5.10
2018-09-27T00:32:04.494Z,5.20
2018-09-27T00:33:04.629Z,4.80
2018-09-27T00:34:04.781Z,3.90
2018-09-27T00:35:04.906Z,4.20
2018-09-27T00:36:05.044Z,4.60
2018-09-27T00:37:05.175Z,5.30
2018-09-27T00:38:05.323Z,6.00
2018-09-27T00:39:05.460Z,5.10
2018-09-27T00:40:05.585Z,5.90
2018-09-27T00:41:05.723Z,4.60
2018-09-27T00:42:05.881Z,4.70
2018-09-27T00:43:06.012Z,5.00
2018-09-27T00:44:06.154Z,6.70
2018-09-27T00:45:06.287Z,4.90
2018-09-27T00:46:06.423Z,4.60
2018-09-27T00:47:06.552Z,6.30
2018-09-27T00:48:06.687Z,5.40
2018-09-27T00:49:06.824Z,5.40
2018-09-27T00:50:06.959Z,5.10
2018-09-27T00:51:07.091Z,5.50
2018-09-27T00:52:07.223Z,5.70
2018-09-27T00:53:07.359Z,5.30
2018-09-27T00:54:07.488Z,5.20
2018-09-27T00:55:07.616Z,6.00
2018-09-27T00:56:07.788Z,6.10
2018-09-27T00:57:07.917Z,6.80
2018-09-27T00:58:08.056Z,7.80
2018-09-27T00:59:08.186Z,6.50
2018-09-27T01:00:08.319Z,6.00
2018-09-27T01:01:08.454Z,9.20
2018-09-27T01:02:08.588Z,5.50
2018-09-27T01:03:08.725Z,5.20
2018-09-27T01:04:08.848Z,4.40
2018-09-27T01:05:08.979Z,4.90
2018-09-27T01:06:09.109Z,6.00
2018-09-27T01:07:09.248Z,6.10
2018-09-27T01:08:09.382Z,6.30
2018-09-27T01:09:09.509Z,4.80
2018-09-27T01:10:09.640Z,3.80
2018-09-27T01:11:09.809Z,5.70
2018-09-27T01:12:09.925Z,4.60
2018-09-27T01:13:10.057Z,4.50
2018-09-27T01:14:10.184Z,4.90
2018-09-27T01:15:10.313Z,5.60
2018-09-27T01:16:10.444Z,4.80
2018-09-27T01:17:10.574Z,4.50
2018-09-27T01:18:10.707Z,5.20
2018-09-27T01:19:10.849Z,5.30
2018-09-27T01:20:10.985Z,5.10
2018-09-27T01:21:11.133Z,4.80
2018-09-27T01:22:11.301Z,5.90
2018-09-27T01:23:11.430Z,4.90
2018-09-27T01:24:11.573Z,4.90
2018-09-27T01:25:11.711Z,6.40
2018-09-27T01:26:11.863Z,4.70
2018-09-27T01:27:11.982Z,4.50
2018-09-27T01:28:12.134Z,5.90
2018-09-27T01:29:12.265Z,5.00
2018-09-27T01:30:12.396Z,4.00
2018-09-27T01:31:12.531Z,4.40
2018-09-27T01:32:12.665Z,5.00
2018-09-27T01:33:12.815Z,4.60
2018-09-27T01:34:12.954Z,5.20
2018-09-27T01:35:13.085Z,6.20
2018-09-27T01:36:13.213Z,4.80
2018-09-27T01:37:13.348Z,5.80
2018-09-27T01:38:13.517Z,6.30
2018-09-27T01:39:13.643Z,4.80
2018-09-27T01:40:13.774Z,5.50
2018-09-27T01:41:13.909Z,4.70
2018-09-27T01:42:14.038Z,4.00
2018-09-27T01:43:14.176Z,4.70
2018-09-27T01:44:14.307Z,4.80
2018-09-27T01:45:14.440Z,4.10
2018-09-27T01:46:14.574Z,4.60
2018-09-27T01:47:14.768Z,5.00
2018-09-27T01:48:14.838Z,4.20
2018-09-27T01:49:14.973Z,5.30
2018-09-27T01:50:15.105Z,5.60
2018-09-27T01:51:15.243Z,6.70
2018-09-27T01:52:15.392Z,5.50
2018-09-27T01:53:15.524Z,5.90
2018-09-27T01:54:15.662Z,4.70
2018-09-27T01:55:15.795Z,5.10
2018-09-27T01:56:15.927Z,4.90
2018-09-27T01:57:16.108Z,6.90
2018-09-27T01:58:16.249Z,5.80
2018-09-27T01:59:16.384Z,4.70
2018-09-27T02:00:16.517Z,4.70
2018-09-27T02:01:16.655Z,4.70
2018-09-27T02:02:16.785Z,5.10
2018-09-27T02:03:16.920Z,4.20
2018-09-27T02:04:17.082Z,5.00
2018-09-27T02:05:17.213Z,4.10
2018-09-27T02:06:17.416Z,4.50
2018-09-27T02:07:17.419Z,6.20
2018-09-27T02:08:17.578Z,5.00
2018-09-27T02:09:17.698Z,4.70
2018-09-27T02:10:17.827Z,4.20
2018-09-27T02:11:17.961Z,4.40
2018-09-27T02:12:18.120Z,5.30
2018-09-27T02:13:18.251Z,5.80
2018-09-27T02:14:18.378Z,4.90
2018-09-27T02:15:18.512Z,5.80
2018-09-27T02:16:18.649Z,4.30
2018-09-27T02:17:18.779Z,5.00
2018-09-27T02:18:18.916Z,4.70
2018-09-27T02:19:19.094Z,4.80
2018-09-27T02:20:19.222Z,4.30
2018-09-27T02:21:19.357Z,4.50
2018-09-27T02:22:19.491Z,5.00
2018-09-27T02:23:19.648Z,5.70
2018-09-27T02:24:19.772Z,5.50
2018-09-27T02:25:19.901Z,5.00
2018-09-27T02:26:20.036Z,4.90
2018-09-27T02:27:20.194Z,4.70
2018-09-27T02:28:20.325Z,4.90
2018-09-27T02:29:20.462Z,5.50
2018-09-27T02:30:20.602Z,5.10
2018-09-27T02:31:20.723Z,4.70
2018-09-27T02:32:20.855Z,5.50
2018-09-27T02:33:20.988Z,5.70
2018-09-27T02:34:21.123Z,6.20
2018-09-27T02:35:21.824Z,6.40
2018-09-27T02:36:21.345Z,4.70
2018-09-27T02:37:21.478Z,5.10
2018-09-27T02:38:21.612Z,5.70
2018-09-27T02:39:21.744Z,5.00
2018-09-27T02:40:21.873Z,5.90
2018-09-27T02:41:22.013Z,7.20
2018-09-27T02:42:22.135Z,5.10
2018-09-27T02:43:22.274Z,6.90
2018-09-27T02:44:22.410Z,7.00
2018-09-27T02:45:22.534Z,5.80
2018-09-27T02:46:22.669Z,5.30
2018-09-27T02:47:22.805Z,4.90
2018-09-27T02:48:22.940Z,5.50
2018-09-27T02:49:23.065Z,6.00
2018-09-27T02:50:23.199Z,6.60
2018-09-27T02:51:23.324Z,4.60
2018-09-27T02:52:23.524Z,5.10
2018-09-27T02:53:23.528Z,5.90
2018-09-27T02:54:23.670Z,5.70
2018-09-27T02:55:23.815Z,4.80
2018-09-27T02:56:23.934Z,6.70
2018-09-27T02:57:24.084Z,7.00
2018-09-27T02:58:24.218Z,5.40
2018-09-27T02:59:24.359Z,6.40
2018-09-27T03:00:24.493Z,4.50
2018-09-27T03:01:24.620Z,6.30
2018-09-27T03:02:24.751Z,5.60
2018-09-27T03:03:24.888Z,6.40
2018-09-27T03:04:25.043Z,6.40
2018-09-27T03:05:25.163Z,4.90
2018-09-27T03:06:25.296Z,5.70
2018-09-27T03:07:25.441Z,5.40
2018-09-27T03:08:25.575Z,5.90
2018-09-27T03:09:25.709Z,5.60
2018-09-27T03:10:25.839Z,5.30
2018-09-27T03:11:25.969Z,5.50
2018-09-27T03:12:26.131Z,5.70
2018-09-27T03:13:26.276Z,7.90
2018-09-27T03:14:26.413Z,5.70
2018-09-27T03:15:26.542Z,5.50
2018-09-27T03:16:26.702Z,4.60
2018-09-27T03:17:26.822Z,5.50
2018-09-27T03:18:26.952Z,5.10
2018-09-27T03:19:27.093Z,4.40
2018-09-27T03:20:27.235Z,4.50
2018-09-27T03:21:27.367Z,5.70
2018-09-27T03:22:27.494Z,6.10
2018-09-27T03:23:27.624Z,6.00
2018-09-27T03:24:27.760Z,5.50
2018-09-27T03:25:27.902Z,5.70
2018-09-27T03:26:28.037Z,5.00
2018-09-27T03:27:28.174Z,4.60
2018-09-27T03:28:28.311Z,5.80
2018-09-27T03:29:28.456Z,4.90
2018-09-27T03:30:28.591Z,6.10
2018-09-27T03:31:28.724Z,5.00
2018-09-27T03:32:28.854Z,5.40
2018-09-27T03:33:28.992Z,4.90
2018-09-27T03:34:29.123Z,4.80
2018-09-27T03:35:29.258Z,5.80
2018-09-27T03:36:29.394Z,5.70
2018-09-27T03:37:29.523Z,8.30
2018-09-27T03:38:30.206Z,5.80
2018-09-27T03:39:29.750Z,7.00
2018-09-27T03:40:29.920Z,6.20
2018-09-27T03:41:30.714Z,6.90
2018-09-27T03:44:02.441Z,5.20
2018-09-27T03:45:02.571Z,4.80
2018-09-27T03:46:02.704Z,6.60
2018-09-27T03:47:02.838Z,5.50
2018-09-27T03:48:02.961Z,7.50
2018-09-27T03:49:03.094Z,5.10
2018-09-27T03:50:03.224Z,6.50
2018-09-27T03:51:03.351Z,6.20
2018-09-27T03:52:03.494Z,5.70
2018-09-27T03:53:03.631Z,7.10
2018-09-27T03:54:03.765Z,5.50
2018-09-27T03:55:03.895Z,5.40
2018-09-27T03:56:04.033Z,5.40
2018-09-27T03:57:04.165Z,6.20
2018-09-27T03:58:04.293Z,7.20
2018-09-27T03:59:04.425Z,6.20
2018-09-27T04:00:04.557Z,7.50
2018-09-27T04:01:04.685Z,7.00
2018-09-27T04:02:04.836Z,5.90
2018-09-27T04:03:04.985Z,6.20
2018-09-27T04:04:05.098Z,5.40
2018-09-27T04:05:05.228Z,6.40
2018-09-27T04:06:05.365Z,6.60
2018-09-27T04:07:05.498Z,8.60
2018-09-27T04:08:05.628Z,9.10
2018-09-27T04:09:05.784Z,8.70
2018-09-27T04:10:05.911Z,7.20
2018-09-27T04:11:06.040Z,10.80
2018-09-27T04:12:06.175Z,9.30
2018-09-27T04:13:06.341Z,9.80
2018-09-27T04:14:06.456Z,8.60
2018-09-27T04:15:06.597Z,8.90
2018-09-27T04:16:06.727Z,7.40
2018-09-27T04:17:06.884Z,7.90
2018-09-27T04:18:07.015Z,9.30
2018-09-27T04:19:07.153Z,12.70
2018-09-27T04:20:07.303Z,11.20
2018-09-27T04:21:07.438Z,13.40
2018-09-27T04:22:07.579Z,10.40
2018-09-27T04:23:07.710Z,8.90
2018-09-27T04:24:07.914Z,8.90
2018-09-27T04:25:08.038Z,11.00
2018-09-27T04:26:08.173Z,8.40
2018-09-27T04:27:08.324Z,8.60
2018-09-27T04:28:08.450Z,10.80
2018-09-27T04:29:08.584Z,6.60
2018-09-27T04:30:08.721Z,9.40
2018-09-27T04:31:08.877Z,5.80
2018-09-27T04:32:09.005Z,8.20
2018-09-27T04:33:09.136Z,6.30
2018-09-27T04:34:09.273Z,8.40
2018-09-27T04:35:09.412Z,7.50
2018-09-27T04:36:09.542Z,6.10
2018-09-27T04:37:09.666Z,8.40
2018-09-27T04:38:09.809Z,5.30
2018-09-27T04:39:09.952Z,6.20
2018-09-27T04:40:10.078Z,5.90
2018-09-27T04:41:10.218Z,4.80
2018-09-27T04:42:10.352Z,5.30
2018-09-27T04:43:10.526Z,6.50
2018-09-27T04:44:10.644Z,6.80
2018-09-27T04:45:10.774Z,5.50
2018-09-27T04:46:10.908Z,7.00
2018-09-27T04:47:11.047Z,6.20
2018-09-27T04:48:11.166Z,5.80
2018-09-27T04:49:11.305Z,5.60
2018-09-27T04:50:11.434Z,6.70
2018-09-27T04:51:11.568Z,5.40
2018-09-27T04:52:11.706Z,7.10
2018-09-27T04:53:11.841Z,5.30
2018-09-27T04:54:11.975Z,4.90
2018-09-27T04:55:12.102Z,5.20
2018-09-27T04:56:12.234Z,7.20
2018-09-27T04:57:12.363Z,6.20
2018-09-27T04:58:12.494Z,5.30
2018-09-27T04:59:12.627Z,4.80
2018-09-27T05:00:12.758Z,5.10
2018-09-27T05:01:12.890Z,5.40
2018-09-27T05:02:13.027Z,5.60
2018-09-27T05:03:13.160Z,6.30
2018-09-27T05:04:13.288Z,6.50
2018-09-27T05:05:13.430Z,4.50
2018-09-27T05:06:13.603Z,6.90
2018-09-27T05:07:13.692Z,5.60
2018-09-27T05:08:13.831Z,5.20
2018-09-27T05:09:13.954Z,6.10
2018-09-27T05:10:14.096Z,6.30
2018-09-27T05:11:14.229Z,7.00
2018-09-27T05:12:14.376Z,7.40
2018-09-27T05:13:14.507Z,5.50
2018-09-27T05:14:14.636Z,8.30
2018-09-27T05:15:14.766Z,5.60
2018-09-27T05:16:14.928Z,7.50
2018-09-27T05:17:15.056Z,6.20
2018-09-27T05:18:15.191Z,8.60
2018-09-27T05:19:15.326Z,7.60
2018-09-27T05:20:15.487Z,5.40
2018-09-27T05:21:15.616Z,8.10
2018-09-27T05:22:15.750Z,7.10
2018-09-27T05:23:15.936Z,6.20
2018-09-27T05:24:16.054Z,6.90
2018-09-27T05:25:16.189Z,4.70
2018-09-27T05:26:16.341Z,6.50
2018-09-27T05:27:16.473Z,5.40
2018-09-27T05:28:16.605Z,6.40
2018-09-27T05:29:16.815Z,6.20
2018-09-27T05:30:16.884Z,8.00
2018-09-27T05:31:17.018Z,5.20
2018-09-27T05:32:17.154Z,6.40
2018-09-27T05:33:17.320Z,5.70
2018-09-27T05:34:17.453Z,5.60
2018-09-27T05:35:17.599Z,5.40
2018-09-27T05:36:17.741Z,7.60
2018-09-27T05:37:17.899Z,7.00
2018-09-27T05:38:18.094Z,6.20
2018-09-27T05:39:18.111Z,6.70
2018-09-27T05:40:18.244Z,7.70
2018-09-27T05:41:18.399Z,6.00
2018-09-27T05:42:18.525Z,6.10
2018-09-27T05:43:18.656Z,5.00
2018-09-27T05:44:18.827Z,5.40
2018-09-27T05:45:18.961Z,7.10
2018-09-27T05:46:19.090Z,5.40
2018-09-27T05:47:19.239Z,5.10
2018-09-27T05:48:19.369Z,6.20
2018-09-27T05:49:19.501Z,5.40
2018-09-27T05:50:19.633Z,5.70
2018-09-27T05:51:19.786Z,5.30
2018-09-27T05:52:19.913Z,5.40
2018-09-27T05:53:20.048Z,5.70
2018-09-27T05:54:20.178Z,6.70
2018-09-27T05:55:20.335Z,5.80
2018-09-27T05:56:20.457Z,6.10
2018-09-27T05:57:20.601Z,6.00
2018-09-27T05:58:20.728Z,5.30
2018-09-27T05:59:20.880Z,5.60
2018-09-27T06:00:21.012Z,6.40
2018-09-27T06:01:21.145Z,6.40
2018-09-27T06:02:21.271Z,5.00
2018-09-27T06:03:21.410Z,5.80
2018-09-27T06:04:21.605Z,5.70
2018-09-27T06:05:21.729Z,5.00
2018-09-27T06:06:21.871Z,6.10
2018-09-27T06:07:22.009Z,7.10
2018-09-27T06:08:22.135Z,5.50
2018-09-27T06:09:22.273Z,7.40
2018-09-27T06:10:22.399Z,8.10
2018-09-27T06:11:22.588Z,7.90
2018-09-27T06:12:22.666Z,6.50
2018-09-27T06:13:22.798Z,7.10
2018-09-27T06:14:22.930Z,6.70
2018-09-27T06:15:23.098Z,8.00
2018-09-27T06:16:23.193Z,7.60
2018-09-27T06:17:23.325Z,8.90
2018-09-27T06:18:23.461Z,9.50
2018-09-27T06:19:23.599Z,12.00
2018-09-27T06:20:23.728Z,8.30
2018-09-27T06:21:23.906Z,12.40
2018-09-27T06:22:23.997Z,10.70
2018-09-27T06:23:24.127Z,9.70
2018-09-27T06:24:24.263Z,9.70
2018-09-27T06:25:24.398Z,10.70
2018-09-27T06:26:24.527Z,11.70
2018-09-27T06:27:24.712Z,11.40
2018-09-27T06:28:24.797Z,9.00
2018-09-27T06:29:24.926Z,8.00
2018-09-27T06:30:25.057Z,11.40
2018-09-27T06:31:25.191Z,10.30
2018-09-27T06:32:25.330Z,11.60
2018-09-27T06:33:25.622Z,10.80
2018-09-27T06:34:25.568Z,9.80
2018-09-27T06:35:25.703Z,10.00
2018-09-27T06:36:25.850Z,12.30
2018-09-27T06:37:25.978Z,10.50
2018-09-27T06:38:26.162Z,11.80
2018-09-27T06:39:26.245Z,9.10
2018-09-27T06:40:26.376Z,7.30
2018-09-27T06:41:26.632Z,8.70
2018-09-27T06:42:26.647Z,7.70
2018-09-27T06:43:26.780Z,8.90
2018-09-27T06:44:27.008Z,11.30
2018-09-27T06:45:27.090Z,9.00
2018-09-27T06:46:27.186Z,11.80
2018-09-27T06:47:27.326Z,8.90
2018-09-27T06:48:27.534Z,10.80
2018-09-27T06:49:27.588Z,7.40
2018-09-27T06:50:27.790Z,7.90
2018-09-27T06:51:27.898Z,6.40
2018-09-27T06:52:28.032Z,9.30
2018-09-27T06:53:28.196Z,8.60
2018-09-27T06:54:28.341Z,7.30
2018-09-27T06:55:28.784Z,8.30
2018-09-27T06:56:28.649Z,9.80
2018-09-27T06:57:28.753Z,7.40
2018-09-27T06:58:28.875Z,9.20
2018-09-27T06:59:29.012Z,9.30
2018-09-27T07:00:29.144Z,7.80
2018-09-27T07:01:29.302Z,10.40
2018-09-27T07:02:29.460Z,7.60
2018-09-27T07:03:29.570Z,8.50
2018-09-27T07:04:29.709Z,7.20
2018-09-27T07:05:29.870Z,8.50
2018-09-27T07:06:30.005Z,9.80
2018-09-27T07:07:30.142Z,9.60
2018-09-27T07:08:30.339Z,9.30
2018-09-27T07:09:30.421Z,8.30
2018-09-27T07:10:30.549Z,9.80
2018-09-27T07:11:30.678Z,9.40
2018-09-27T07:12:30.953Z,7.90
2018-09-27T07:13:30.980Z,9.20
2018-09-27T07:14:31.081Z,8.80
2018-09-27T07:15:31.263Z,8.20
2018-09-27T07:16:31.343Z,9.30
2018-09-27T07:17:31.493Z,8.80
2018-09-27T07:18:31.625Z,9.80
2018-09-27T07:19:31.756Z,10.20
2018-09-27T07:20:31.912Z,10.70
2018-09-27T07:21:32.041Z,7.00
2018-09-27T07:22:32.174Z,13.10
2018-09-27T07:23:32.326Z,9.60
2018-09-27T07:24:32.457Z,9.50
2018-09-27T07:25:32.594Z,9.90
2018-09-27T07:26:32.763Z,7.70
2018-09-27T07:27:32.855Z,9.70
2018-09-27T07:28:32.998Z,9.00
2018-09-27T07:29:33.124Z,10.20
2018-09-27T07:30:33.260Z,8.60
2018-09-27T07:31:33.417Z,7.90
2018-09-27T07:32:33.585Z,8.90
2018-09-27T07:33:33.690Z,8.70
2018-09-27T07:34:33.833Z,8.30
2018-09-27T07:35:33.967Z,8.30
2018-09-27T07:36:34.196Z,8.00
2018-09-27T07:37:34.228Z,8.20
2018-09-27T07:38:34.400Z,10.60
2018-09-27T07:39:34.501Z,7.80
2018-09-27T07:40:34.635Z,9.60
2018-09-27T07:41:34.773Z,8.60
2018-09-27T07:42:34.910Z,7.90
2018-09-27T07:43:35.040Z,12.30
2018-09-27T07:44:35.227Z,7.50
2018-09-27T07:45:35.308Z,6.90
2018-09-27T07:46:35.443Z,7.80
2018-09-27T07:47:35.582Z,7.80
2018-09-27T07:48:35.761Z,6.50
2018-09-27T07:49:35.853Z,6.40
2018-09-27T07:50:35.994Z,6.90
2018-09-27T07:51:36.118Z,6.10
2018-09-27T07:52:36.882Z,8.30
2018-09-27T07:53:36.337Z,8.60
2018-09-27T07:54:36.591Z,8.90
2018-09-27T07:55:36.601Z,9.30
2018-09-27T07:56:36.781Z,6.20
2018-09-27T07:57:36.862Z,7.50
2018-09-27T07:58:36.995Z,7.90
2018-09-27T07:59:37.123Z,9.20
2018-09-27T08:00:37.264Z,8.50
2018-09-27T08:01:37.395Z,7.20
2018-09-27T08:02:37.615Z,7.70
2018-09-27T08:03:37.659Z,7.80
2018-09-27T08:04:37.793Z,6.60
2018-09-27T08:05:37.926Z,11.20
2018-09-27T08:06:38.064Z,7.50
2018-09-27T08:07:38.194Z,7.70
2018-09-27T08:08:38.367Z,7.30
2018-09-27T08:09:38.463Z,8.10
2018-09-27T08:10:38.598Z,8.70
2018-09-27T08:11:38.789Z,8.40
2018-09-27T08:12:38.888Z,7.20
2018-09-27T08:13:39.015Z,6.80
2018-09-27T08:14:39.174Z,7.70
2018-09-27T08:15:39.281Z,7.10
2018-09-27T08:16:39.435Z,8.70
2018-09-27T08:17:39.553Z,7.60
2018-09-27T08:18:39.683Z,8.40
2018-09-27T08:19:39.820Z,6.20
2018-09-27T08:20:40.101Z,7.00
2018-09-27T08:21:40.033Z,9.30
2018-09-27T08:22:40.166Z,8.60
2018-09-27T08:23:40.305Z,8.30
2018-09-27T08:24:40.437Z,7.20
2018-09-27T08:25:40.562Z,7.10
2018-09-27T08:26:40.768Z,9.80
2018-09-27T08:27:40.832Z,7.10
2018-09-27T08:28:41.036Z,9.10
2018-09-27T08:29:41.040Z,7.40
2018-09-27T08:30:41.236Z,8.00
2018-09-27T08:31:41.310Z,6.70
2018-09-27T08:32:41.521Z,7.70
2018-09-27T08:33:41.577Z,11.70
2018-09-27T08:34:41.739Z,7.10
2018-09-27T08:35:41.869Z,10.20
2018-09-27T08:36:42.027Z,19.20
2018-09-27T08:37:42.220Z,15.50
2018-09-27T08:38:42.264Z,18.90
2018-09-27T08:39:42.368Z,16.70
2018-09-27T08:40:42.533Z,15.90
2018-09-27T08:41:42.653Z,10.80
2018-09-27T08:42:42.795Z,13.60
2018-09-27T08:43:42.943Z,10.20
2018-09-27T08:44:43.199Z,8.40
2018-09-27T08:45:43.311Z,8.00
2018-09-27T08:46:43.341Z,7.10
2018-09-27T08:47:43.491Z,6.80
2018-09-27T08:48:43.623Z,8.70
2018-09-27T08:49:43.762Z,6.70
2018-09-27T08:50:43.890Z,5.40
2018-09-27T08:51:44.149Z,5.90
2018-09-27T08:52:44.166Z,5.90
2018-09-27T08:53:44.305Z,7.90
2018-09-27T08:54:44.486Z,8.40
2018-09-27T08:55:44.751Z,6.00
2018-09-27T08:56:44.725Z,6.60
2018-09-27T08:57:44.862Z,6.90
2018-09-27T08:58:45.008Z,6.20
2018-09-27T08:59:45.141Z,7.20
2018-09-27T09:00:45.275Z,6.90
2018-09-27T09:01:45.401Z,6.60
2018-09-27T09:02:45.541Z,6.30
2018-09-27T09:03:45.781Z,7.80
2018-09-27T09:04:45.839Z,16.80
2018-09-27T09:05:45.978Z,12.80
2018-09-27T09:06:46.166Z,9.50
2018-09-27T09:07:46.299Z,7.70
2018-09-27T09:08:46.441Z,7.40
2018-09-27T09:09:46.605Z,6.60
2018-09-27T09:10:46.737Z,7.40
2018-09-27T09:11:46.859Z,7.00
2018-09-27T09:12:46.996Z,7.30
2018-09-27T09:13:47.151Z,10.20
2018-09-27T09:14:47.273Z,6.00
2018-09-27T09:15:47.409Z,7.00
2018-09-27T09:16:47.549Z,6.80
2018-09-27T09:17:47.706Z,7.30
2018-09-27T09:18:47.900Z,8.10
2018-09-27T09:19:47.908Z,7.00
2018-09-27T09:20:48.044Z,10.20
2018-09-27T09:21:48.224Z,6.50
2018-09-27T09:22:48.357Z,7.60
2018-09-27T09:23:48.489Z,9.50
2018-09-27T09:24:48.640Z,9.70
2018-09-27T09:25:48.822Z,8.40
2018-09-27T09:26:48.903Z,6.40
2018-09-27T09:27:49.045Z,7.60
2018-09-27T09:28:49.215Z,7.70
2018-09-27T09:29:49.372Z,8.70
2018-09-27T09:30:49.490Z,7.40
2018-09-27T09:31:49.645Z,8.40
2018-09-27T09:32:49.784Z,7.70
2018-09-27T09:33:49.915Z,8.80
2018-09-27T09:34:50.055Z,6.90
2018-09-27T09:35:50.263Z,7.80
2018-09-27T09:36:50.353Z,8.50
2018-09-27T09:37:50.495Z,6.80
2018-09-27T09:38:50.641Z,7.40
2018-09-27T09:39:50.797Z,6.80
2018-09-27T09:40:51.412Z,6.50
2018-09-27T09:41:51.082Z,9.00
2018-09-27T09:42:51.220Z,7.70
2018-09-27T09:43:51.338Z,8.50
2018-09-27T09:44:51.486Z,7.30
2018-09-27T09:45:51.636Z,7.90
2018-09-27T09:46:51.771Z,8.40
2018-09-27T09:47:51.903Z,9.20
2018-09-27T09:48:52.045Z,8.50
2018-09-27T09:49:52.209Z,7.30
2018-09-27T09:50:52.314Z,7.80
2018-09-27T09:51:52.469Z,7.40
2018-09-27T09:52:52.605Z,7.60
2018-09-27T09:53:52.746Z,7.70
2018-09-27T09:54:52.877Z,10.10
2018-09-27T09:55:53.014Z,8.10
2018-09-27T09:56:53.160Z,9.30
2018-09-27T09:57:53.282Z,7.60
2018-09-27T09:58:53.427Z,7.50
2018-09-27T09:59:53.567Z,9.40
2018-09-27T10:00:53.705Z,7.40
2018-09-27T10:01:53.838Z,8.00
2018-09-27T10:02:54.931Z,9.30
2018-09-27T10:03:54.099Z,7.60
2018-09-27T10:04:54.247Z,10.20
2018-09-27T10:05:54.378Z,7.40
2018-09-27T10:06:54.508Z,6.40
2018-09-27T10:07:54.639Z,10.10
2018-09-27T10:08:54.816Z,6.20
2018-09-27T10:09:54.921Z,8.00
2018-09-27T10:10:55.063Z,6.80
2018-09-27T10:11:55.192Z,7.60
2018-09-27T10:12:55.338Z,6.10
2018-09-27T10:13:55.475Z,9.70
2018-09-27T10:14:55.618Z,8.70
2018-09-27T10:15:55.750Z,8.80
2018-09-27T10:16:55.889Z,6.20
2018-09-27T10:17:56.021Z,5.40
2018-09-27T10:18:56.160Z,8.00
2018-09-27T10:19:56.300Z,7.20
2018-09-27T10:20:56.437Z,8.00
2018-09-27T10:21:56.586Z,9.20
2018-09-27T10:22:56.726Z,6.90
2018-09-27T10:23:56.859Z,6.30
2018-09-27T10:24:57.003Z,6.40
2018-09-27T10:25:57.134Z,5.80
2018-09-27T10:26:57.279Z,6.60
2018-09-27T10:27:57.415Z,7.80
2018-09-27T10:28:57.557Z,5.30
2018-09-27T10:29:57.695Z,9.30
2018-09-27T10:30:57.840Z,5.70
2018-09-27T10:31:57.981Z,6.10
2018-09-27T10:32:58.121Z,5.50
2018-09-27T10:33:58.252Z,6.90
2018-09-27T10:34:58.461Z,5.80
2018-09-27T10:35:58.475Z,7.70
2018-09-27T10:36:58.617Z,7.40
2018-09-27T10:37:58.760Z,7.10
2018-09-27T10:38:58.899Z,5.10
2018-09-27T10:39:59.039Z,5.00
2018-09-27T10:40:59.172Z,5.60
2018-09-27T10:41:59.321Z,8.40
2018-09-27T10:42:59.468Z,5.80
2018-09-27T10:43:59.602Z,5.40
2018-09-27T10:44:59.757Z,5.40
2018-09-27T10:45:59.868Z,6.80
2018-09-27T10:47:00.045Z,4.50
2018-09-27T10:48:00.185Z,4.80
2018-09-27T10:49:00.331Z,7.70
2018-09-27T10:50:00.471Z,5.50
2018-09-27T10:51:00.607Z,4.50
2018-09-27T10:52:00.750Z,6.80
2018-09-27T10:53:00.887Z,3.80
2018-09-27T10:54:01.016Z,6.00
2018-09-27T10:55:01.162Z,5.20
2018-09-27T10:56:01.306Z,4.60
2018-09-27T10:57:01.476Z,4.30
2018-09-27T10:58:01.595Z,5.30
2018-09-27T10:59:01.736Z,6.40
2018-09-27T11:00:01.887Z,5.50
2018-09-27T11:01:02.021Z,5.10
2018-09-27T11:02:02.155Z,5.60
2018-09-27T11:03:02.300Z,4.80
2018-09-27T11:04:02.472Z,6.10
2018-09-27T11:05:02.604Z,6.70
2018-09-27T11:06:02.741Z,6.60
2018-09-27T11:07:02.883Z,4.90
2018-09-27T11:08:03.039Z,5.70
2018-09-27T11:09:03.162Z,4.30
2018-09-27T11:10:03.302Z,4.90
2018-09-27T11:11:03.452Z,5.20
2018-09-27T11:12:03.598Z,6.70
2018-09-27T11:13:03.754Z,5.00
2018-09-27T11:14:03.898Z,5.80
2018-09-27T11:15:04.035Z,4.00
2018-09-27T11:16:04.211Z,5.00
2018-09-27T11:17:04.352Z,4.50
2018-09-27T11:18:04.490Z,4.30
2018-09-27T11:19:04.629Z,4.50
2018-09-27T11:20:04.788Z,3.90
2018-09-27T11:21:04.927Z,6.30
2018-09-27T11:22:05.104Z,4.90
2018-09-27T11:23:05.218Z,3.90
2018-09-27T11:24:05.373Z,4.70
2018-09-27T11:25:05.493Z,5.00
2018-09-27T11:26:05.632Z,2.80
2018-09-27T11:27:05.770Z,2.80
2018-09-27T11:28:05.927Z,3.20
2018-09-27T11:29:06.091Z,4.20
2018-09-27T11:30:06.197Z,3.50
2018-09-27T11:31:07.002Z,3.40
2018-09-27T11:32:06.537Z,3.30
2018-09-27T11:33:06.736Z,3.80
2018-09-27T11:34:06.819Z,2.50
2018-09-27T11:35:06.959Z,3.20
2018-09-27T11:36:07.139Z,5.50
2018-09-27T11:37:07.286Z,4.10
2018-09-27T11:38:07.443Z,3.30
2018-09-27T11:39:07.589Z,5.00
2018-09-27T11:40:07.728Z,4.80
2018-09-27T11:41:07.866Z,3.30
2018-09-27T11:42:08.018Z,4.20
2018-09-27T11:43:08.164Z,2.10
2018-09-27T11:44:08.392Z,3.00
2018-09-27T11:45:08.449Z,2.10
2018-09-27T11:46:08.588Z,3.00
2018-09-27T11:47:08.728Z,4.40
2018-09-27T11:48:08.877Z,2.50
2018-09-27T11:49:09.113Z,2.90
2018-09-27T11:50:09.211Z,3.00
2018-09-27T11:51:09.302Z,3.20
2018-09-27T11:52:09.440Z,3.60
2018-09-27T11:53:09.583Z,4.10
2018-09-27T11:54:09.728Z,3.60
2018-09-27T11:55:09.935Z,3.30
2018-09-27T11:56:10.098Z,4.00
2018-09-27T11:57:10.200Z,3.60
2018-09-27T11:58:10.372Z,3.10
2018-09-27T11:59:10.634Z,3.00
2018-09-27T12:00:10.650Z,3.90
2018-09-27T12:01:10.809Z,3.30
2018-09-27T12:02:10.944Z,1.40
2018-09-27T12:03:11.081Z,2.10
2018-09-27T12:04:11.217Z,4.10
2018-09-27T12:05:11.385Z,1.90
2018-09-27T12:06:11.529Z,1.90
2018-09-27T12:07:12.444Z,2.30
2018-09-27T12:08:11.883Z,2.60
2018-09-27T12:09:12.023Z,2.20
2018-09-27T12:10:12.175Z,2.40
2018-09-27T12:11:12.330Z,2.40
2018-09-27T12:12:12.473Z,2.60
2018-09-27T12:13:12.667Z,1.90
2018-09-27T12:14:12.790Z,2.50
2018-09-27T12:15:12.934Z,3.00
2018-09-27T12:16:13.086Z,1.80
2018-09-27T12:17:13.238Z,1.60
2018-09-27T12:18:13.384Z,1.30
2018-09-27T12:19:13.524Z,2.40
2018-09-27T12:20:13.670Z,2.20
2018-09-27T12:21:13.837Z,1.70
2018-09-27T12:22:13.976Z,1.40
2018-09-27T12:23:14.131Z,3.60
2018-09-27T12:24:14.280Z,1.90
2018-09-27T12:25:14.451Z,3.90
2018-09-27T12:26:14.595Z,2.60
2018-09-27T12:27:14.742Z,1.90
2018-09-27T12:28:14.888Z,2.50
2018-09-27T12:29:15.052Z,3.30
2018-09-27T12:30:15.196Z,1.80
2018-09-27T12:31:15.344Z,1.80
2018-09-27T12:32:15.496Z,2.00
2018-09-27T12:33:15.673Z,2.20
2018-09-27T12:34:15.823Z,1.60
2018-09-27T12:35:15.972Z,2.00
2018-09-27T12:36:16.121Z,3.70
2018-09-27T12:37:16.289Z,2.50
2018-09-27T12:38:16.459Z,2.30
2018-09-27T12:39:16.592Z,4.70
2018-09-27T12:40:16.741Z,1.30
2018-09-27T12:41:16.903Z,2.50
2018-09-27T12:42:17.121Z,2.80
2018-09-27T12:43:17.210Z,5.10
2018-09-27T12:44:17.360Z,3.80
2018-09-27T12:45:17.657Z,5.20
2018-09-27T12:46:17.728Z,6.80
2018-09-27T12:47:17.885Z,7.30
2018-09-27T12:48:17.962Z,7.60
2018-09-27T12:49:18.075Z,3.60
2018-09-27T12:50:18.251Z,5.30
2018-09-27T12:51:18.575Z,2.40
2018-09-27T12:52:18.801Z,3.30
2018-09-27T12:53:18.745Z,3.50
2018-09-27T12:54:18.898Z,2.30
2018-09-27T12:55:19.053Z,2.70
2018-09-27T12:56:19.200Z,3.10
2018-09-27T12:57:19.361Z,2.40
2018-09-27T12:58:19.521Z,2.40
2018-09-27T12:59:19.688Z,2.70
2018-09-27T13:00:20.601Z,2.80
2018-09-27T13:01:20.011Z,2.60
2018-09-27T13:02:20.215Z,2.90
2018-09-27T13:03:20.320Z,4.50
2018-09-27T13:04:20.478Z,2.30
2018-09-27T13:05:20.639Z,3.00
2018-09-27T13:06:20.781Z,3.40
2018-09-27T13:07:21.001Z,4.50
2018-09-27T13:08:21.040Z,2.60
2018-09-27T13:09:21.416Z,2.30
2018-09-27T13:10:21.411Z,3.40
2018-09-27T13:11:21.546Z,2.60
2018-09-27T13:12:21.718Z,3.60
2018-09-27T13:13:22.008Z,3.10
2018-09-27T13:14:22.026Z,3.30
2018-09-27T13:15:22.167Z,4.90
2018-09-27T13:16:22.322Z,3.50
2018-09-27T13:17:22.483Z,3.00
2018-09-27T13:18:22.638Z,3.00
2018-09-27T13:19:22.809Z,4.50
2018-09-27T13:20:23.033Z,5.30
2018-09-27T13:21:23.109Z,2.70